createdAt,value
2018-03-28T00:01:00.948Z,40.93
2018-03-28T00:03:28.328Z,39.10
2018-03-28T00:05:55.709Z,42.27
2018-03-28T00:08:23.092Z,41.63
2018-03-28T00:10:50.485Z,42.80
2018-03-28T00:13:17.856Z,42.70
2018-03-28T00:15:45.244Z,41.47
2018-03-28T00:18:12.620Z,43.90
2018-03-28T00:20:40.010Z,47.03
2018-03-28T00:23:07.392Z,47.40
2018-03-28T00:25:34.772Z,48.30
2018-03-28T00:28:02.168Z,46.03
2018-03-28T00:30:29.552Z,45.57
2018-03-28T00:32:56.936Z,47.17
2018-03-28T00:35:24.320Z,50.83
2018-03-28T00:37:51.696Z,46.77
2018-03-28T00:40:19.088Z,45.00
2018-03-28T00:42:46.474Z,53.20
2018-03-28T00:45:14.713Z,49.50
2018-03-28T00:47:42.102Z,45.53
2018-03-28T00:50:09.778Z,50.40
2018-03-28T00:52:37.165Z,47.80
2018-03-28T00:55:04.541Z,46.40
2018-03-28T00:57:31.928Z,45.17
2018-03-28T00:59:59.316Z,46.57
2018-03-28T01:02:26.710Z,47.77
2018-03-28T01:04:54.093Z,47.37
2018-03-28T01:07:21.468Z,44.37
2018-03-28T01:09:48.852Z,49.40
2018-03-28T01:12:16.234Z,47.80
2018-03-28T01:14:43.618Z,51.97
2018-03-28T01:17:10.996Z,48.90
2018-03-28T01:19:38.383Z,49.80
2018-03-28T01:22:05.764Z,49.00
2018-03-28T01:24:33.173Z,52.33
2018-03-28T01:27:00.557Z,48.93
2018-03-28T01:29:27.949Z,52.33
2018-03-28T01:31:55.333Z,47.50
2018-03-28T01:34:22.716Z,48.80
2018-03-28T01:36:50.100Z,47.67
2018-03-28T01:39:17.477Z,46.97
2018-03-28T01:41:44.864Z,50.10
2018-03-28T01:44:12.260Z,47.90
2018-03-28T01:46:39.640Z,49.33
2018-03-28T01:49:07.016Z,45.50
2018-03-28T01:51:34.407Z,47.13
2018-03-28T01:54:01.780Z,46.27
2018-03-28T01:56:29.164Z,45.57
2018-03-28T01:58:56.549Z,44.80
2018-03-28T02:01:23.940Z,45.63
2018-03-28T02:03:51.318Z,45.03
2018-03-28T02:06:18.715Z,55.67
2018-03-28T02:08:46.088Z,51.60
2018-03-28T02:11:13.505Z,52.33
2018-03-28T02:13:40.888Z,55.07
2018-03-28T02:16:08.276Z,56.50
2018-03-28T02:18:35.663Z,59.10
2018-03-28T02:21:03.039Z,53.93
2018-03-28T02:23:30.433Z,57.23
2018-03-28T02:25:57.821Z,55.07
2018-03-28T02:28:25.209Z,59.90
2018-03-28T02:30:52.584Z,56.33
2018-03-28T02:33:19.996Z,53.53
2018-03-28T02:35:47.380Z,53.07
2018-03-28T02:38:14.771Z,54.57
2018-03-28T02:40:42.145Z,60.90
2018-03-28T02:43:09.536Z,56.07
2018-03-28T02:45:36.932Z,57.83
2018-03-28T02:48:04.317Z,63.80
2018-03-28T02:50:31.704Z,60.50
2018-03-28T02:52:59.106Z,53.33
2018-03-28T02:55:26.480Z,57.23
2018-03-28T02:57:53.894Z,54.67
2018-03-28T03:00:21.276Z,56.87
2018-03-28T03:02:48.676Z,54.50
2018-03-28T03:05:16.064Z,55.80
2018-03-28T03:07:43.465Z,56.00
2018-03-28T03:10:10.849Z,56.10
2018-03-28T03:12:38.232Z,51.40
2018-03-28T03:15:05.621Z,52.00
2018-03-28T03:17:33.013Z,53.20
2018-03-28T03:20:00.404Z,61.07
2018-03-28T03:22:27.804Z,52.37
2018-03-28T03:24:55.197Z,50.93
2018-03-28T03:27:22.575Z,49.30
2018-03-28T03:29:49.968Z,46.60
2018-03-28T03:32:17.362Z,49.53
2018-03-28T03:34:44.750Z,44.80
2018-03-28T03:37:12.134Z,47.07
2018-03-28T03:39:39.529Z,46.10
2018-03-28T03:42:06.907Z,43.40
2018-03-28T03:44:34.292Z,47.47
2018-03-28T03:47:01.679Z,45.70
2018-03-28T03:49:29.064Z,45.60
2018-03-28T03:51:56.456Z,45.17
2018-03-28T03:54:23.856Z,49.27
2018-03-28T03:56:51.245Z,45.40
2018-03-28T03:59:18.633Z,44.00
2018-03-28T04:01:46.020Z,43.77
2018-03-28T04:04:13.407Z,43.93
2018-03-28T04:06:40.791Z,45.23
2018-03-28T04:09:08.192Z,39.30
2018-03-28T04:11:35.592Z,39.00
2018-03-28T04:14:02.988Z,38.27
2018-03-28T04:16:30.384Z,42.10
2018-03-28T04:18:57.768Z,38.03
2018-03-28T04:21:25.156Z,37.83
2018-03-28T04:23:52.545Z,40.33
2018-03-28T04:26:19.940Z,36.60
2018-03-28T04:28:47.328Z,37.20
2018-03-28T04:31:14.712Z,34.50
2018-03-28T04:33:42.110Z,31.20
2018-03-28T04:36:09.488Z,28.03
2018-03-28T04:38:36.888Z,35.30
2018-03-28T04:41:04.269Z,41.23
2018-03-28T04:43:31.664Z,41.37
2018-03-28T04:45:59.044Z,40.80
2018-03-28T04:48:26.440Z,37.23
2018-03-28T04:50:53.820Z,42.93
2018-03-28T04:53:21.216Z,46.80
2018-03-28T04:55:48.640Z,47.43
2018-03-28T04:58:15.998Z,46.77
2018-03-28T05:00:43.396Z,43.00
2018-03-28T05:03:10.776Z,45.50
2018-03-28T05:05:38.172Z,52.13
2018-03-28T05:08:05.544Z,46.20
2018-03-28T05:10:32.938Z,46.30
2018-03-28T05:13:00.321Z,49.07
2018-03-28T05:15:27.712Z,49.77
2018-03-28T05:17:55.110Z,54.33
2018-03-28T05:20:22.495Z,49.33
2018-03-28T05:22:49.881Z,50.30
2018-03-28T05:25:17.279Z,48.70
2018-03-28T05:27:44.657Z,53.97
2018-03-28T05:30:12.048Z,57.23
2018-03-28T05:32:39.428Z,53.03
2018-03-28T05:35:06.821Z,58.73
2018-03-28T05:37:34.539Z,49.60
2018-03-28T05:40:01.935Z,52.30
2018-03-28T05:42:29.316Z,54.80
2018-03-28T05:44:56.704Z,64.20
2018-03-28T05:47:24.093Z,66.13
2018-03-28T05:49:51.509Z,64.60
2018-03-28T05:52:18.888Z,66.80
2018-03-28T05:54:46.275Z,69.20
2018-03-28T05:57:13.665Z,64.30
2018-03-28T05:59:41.048Z,75.27
2018-03-28T06:02:08.436Z,80.93
2018-03-28T06:04:35.826Z,80.23
2018-03-28T06:07:03.217Z,84.37
2018-03-28T06:09:30.605Z,76.10
2018-03-28T06:11:57.992Z,80.87
2018-03-28T06:14:25.378Z,75.50
2018-03-28T06:16:52.765Z,77.40
2018-03-28T06:19:20.152Z,80.77
2018-03-28T06:21:47.540Z,86.47
2018-03-28T06:24:14.921Z,82.50
2018-03-28T06:26:42.313Z,85.10
2018-03-28T06:29:09.698Z,83.60
2018-03-28T06:31:37.110Z,85.97
2018-03-28T06:34:04.478Z,84.20
2018-03-28T06:36:31.868Z,91.57
2018-03-28T06:38:59.256Z,79.73
2018-03-28T06:41:26.676Z,92.33
2018-03-28T06:43:54.068Z,77.63
2018-03-28T06:46:21.540Z,80.00
2018-03-28T06:48:48.928Z,77.53
2018-03-28T06:51:16.315Z,73.90
2018-03-28T06:53:43.704Z,79.67
2018-03-28T06:56:11.093Z,73.17
2018-03-28T06:58:38.528Z,73.13
2018-03-28T07:01:05.908Z,78.13
2018-03-28T07:03:33.304Z,76.47
2018-03-28T07:06:00.694Z,70.70
2018-03-28T07:08:28.080Z,70.80
2018-03-28T07:10:55.471Z,62.27
2018-03-28T07:13:22.899Z,65.83
2018-03-28T07:15:50.282Z,71.40
2018-03-28T07:18:17.662Z,67.03
2018-03-28T07:20:45.157Z,69.27
2018-03-28T07:23:12.688Z,69.53
2018-03-28T07:25:41.158Z,66.93
2018-03-28T07:28:08.524Z,74.40
2018-03-28T07:30:35.927Z,75.70
2018-03-28T07:33:03.968Z,59.80
2018-03-28T07:35:31.596Z,65.07
2018-03-28T07:37:58.972Z,65.73
2018-03-28T07:40:26.397Z,63.20
2018-03-28T07:42:53.786Z,62.33
2018-03-28T07:45:21.184Z,63.30
2018-03-28T07:47:48.897Z,73.30
2018-03-28T07:50:16.364Z,69.93
2018-03-28T07:52:43.764Z,62.17
2018-03-28T07:55:11.289Z,68.73
2018-03-28T07:57:38.682Z,66.10
2018-03-28T08:00:06.111Z,63.80
2018-03-28T08:02:33.504Z,73.10
2018-03-28T08:05:00.892Z,67.20
2018-03-28T08:07:28.268Z,70.00
2018-03-28T08:09:56.549Z,71.00
2018-03-28T08:12:23.953Z,77.10
2018-03-28T08:14:51.348Z,79.97
2018-03-28T08:17:18.764Z,68.43
2018-03-28T08:19:46.188Z,66.60
2018-03-28T08:22:13.621Z,68.93
2018-03-28T08:24:41.039Z,67.83
2018-03-28T08:27:08.420Z,66.47
2018-03-28T08:29:35.809Z,71.27
2018-03-28T08:32:03.203Z,74.47
2018-03-28T08:34:30.588Z,72.50
2018-03-28T08:36:57.999Z,71.57
2018-03-28T08:39:25.386Z,65.80
2018-03-28T08:41:52.755Z,71.20
2018-03-28T08:44:20.157Z,68.57
2018-03-28T08:46:47.564Z,69.60
2018-03-28T08:49:14.968Z,64.93
2018-03-28T08:51:42.350Z,66.97
2018-03-28T08:54:09.846Z,68.50
2018-03-28T08:56:37.243Z,70.67
2018-03-28T08:59:04.616Z,59.10
2018-03-28T09:01:32.002Z,67.90
2018-03-28T09:03:59.435Z,70.13
2018-03-28T09:06:26.832Z,60.33
2018-03-28T09:08:54.230Z,67.33
2018-03-28T09:11:21.635Z,62.23
2018-03-28T09:13:49.045Z,62.87
2018-03-28T09:16:16.424Z,58.73
2018-03-28T09:18:43.840Z,64.17
2018-03-28T09:21:11.262Z,58.83
2018-03-28T09:23:38.657Z,60.00
2018-03-28T09:26:06.092Z,62.50
2018-03-28T09:28:33.444Z,63.93
2018-03-28T09:31:00.850Z,57.40
2018-03-28T09:33:28.272Z,60.40
2018-03-28T09:35:55.675Z,58.53
2018-03-28T09:38:23.064Z,61.30
2018-03-28T09:40:50.460Z,62.00
2018-03-28T09:43:17.864Z,62.20
2018-03-28T09:45:45.287Z,50.83
2018-03-28T09:48:12.676Z,45.53
2018-03-28T09:50:40.082Z,48.73
2018-03-28T09:53:07.483Z,53.67
2018-03-28T09:55:34.871Z,47.57
2018-03-28T09:58:02.272Z,45.90
2018-03-28T10:00:29.692Z,46.60
2018-03-28T10:03:02.587Z,42.30
2018-03-28T10:05:35.498Z,39.83
2018-03-28T10:08:02.897Z,43.37
2018-03-28T10:10:30.306Z,38.17
2018-03-28T10:12:57.725Z,35.93
2018-03-28T10:15:25.105Z,41.40
2018-03-28T10:17:52.548Z,40.00
2018-03-28T10:20:19.945Z,36.07
2018-03-28T10:22:47.400Z,38.93
2018-03-28T10:25:14.785Z,40.50
2018-03-28T10:27:42.184Z,37.13
2018-03-28T10:30:09.588Z,35.73
2018-03-28T10:32:36.980Z,34.23
2018-03-28T10:35:04.378Z,32.23
2018-03-28T10:37:31.763Z,33.13
2018-03-28T10:39:59.169Z,35.20
2018-03-28T10:42:26.548Z,34.37
2018-03-28T10:44:53.946Z,34.60
2018-03-28T10:47:21.325Z,35.30
2018-03-28T10:49:48.728Z,35.67
2018-03-28T10:52:16.123Z,33.20
2018-03-28T10:54:44.576Z,35.20
2018-03-28T10:57:11.964Z,40.13
2018-03-28T10:59:39.372Z,37.70
2018-03-28T11:02:06.753Z,34.60
2018-03-28T11:04:34.165Z,33.17
2018-03-28T11:07:01.549Z,34.03
2018-03-28T11:09:28.943Z,32.73
2018-03-28T11:11:56.383Z,32.40
2018-03-28T11:14:23.810Z,33.63
2018-03-28T11:16:51.210Z,29.63
2018-03-28T11:19:18.589Z,30.27
2018-03-28T11:21:45.985Z,33.30
2018-03-28T11:24:13.416Z,32.90
2018-03-28T11:26:40.827Z,32.13
2018-03-28T11:29:08.208Z,32.30
2018-03-28T11:31:35.684Z,31.20
2018-03-28T11:34:03.079Z,33.90
2018-03-28T11:36:30.479Z,29.97
2018-03-28T11:38:57.892Z,30.10
2018-03-28T11:41:25.296Z,30.60
2018-03-28T11:43:52.700Z,29.37
2018-03-28T11:46:20.158Z,30.97
2018-03-28T11:48:47.548Z,30.83
2018-03-28T11:51:14.952Z,30.23
2018-03-28T11:53:42.432Z,28.23
2018-03-28T11:56:09.877Z,28.40
2018-03-28T11:58:37.323Z,28.03
2018-03-28T12:01:04.711Z,27.83
2018-03-28T12:03:32.104Z,23.00
2018-03-28T12:05:59.565Z,23.50
2018-03-28T12:08:27.013Z,23.27
2018-03-28T12:10:54.423Z,21.30
2018-03-28T12:13:21.820Z,20.63
2018-03-28T12:15:49.221Z,18.90
2018-03-28T12:18:16.642Z,19.53
2018-03-28T12:20:44.035Z,20.47
2018-03-28T12:23:11.405Z,21.60
2018-03-28T12:25:38.792Z,21.03
2018-03-28T12:28:06.232Z,20.13
2018-03-28T12:30:33.618Z,22.07
2018-03-28T12:33:01.029Z,22.00
2018-03-28T12:35:28.438Z,21.03
2018-03-28T12:37:55.829Z,20.10
2018-03-28T12:40:23.224Z,19.83
2018-03-28T12:42:50.593Z,22.00
2018-03-28T12:45:18.020Z,21.97
2018-03-28T12:47:45.430Z,21.37
2018-03-28T12:50:12.872Z,21.00
2018-03-28T12:52:40.326Z,23.03
2018-03-28T12:55:07.756Z,22.87
2018-03-28T12:57:35.174Z,21.60
2018-03-28T13:00:02.576Z,21.87
2018-03-28T13:02:30.021Z,22.70
2018-03-28T13:04:57.399Z,23.17
2018-03-28T13:07:24.852Z,23.43
2018-03-28T13:09:52.229Z,20.57
2018-03-28T13:12:19.623Z,19.80
2018-03-28T13:14:47.012Z,19.13
2018-03-28T13:17:14.468Z,18.60
2018-03-28T13:19:41.932Z,20.80
2018-03-28T13:22:09.316Z,19.90
2018-03-28T13:24:36.736Z,18.70
2018-03-28T13:27:04.153Z,19.43
2018-03-28T13:29:31.529Z,20.07
2018-03-28T13:31:58.924Z,21.40
2018-03-28T13:34:26.388Z,20.37
2018-03-28T13:36:53.816Z,20.13
2018-03-28T13:39:21.200Z,22.03
2018-03-28T13:41:48.629Z,21.40
2018-03-28T13:44:15.993Z,21.57
2018-03-28T13:46:43.500Z,20.07
2018-03-28T13:49:10.900Z,20.80
2018-03-28T13:51:38.286Z,19.90
2018-03-28T13:54:05.684Z,19.83
2018-03-28T13:56:34.289Z,20.87
2018-03-28T13:59:01.671Z,21.83
2018-03-28T14:01:29.767Z,20.70
2018-03-28T14:03:57.144Z,21.13
2018-03-28T14:06:24.551Z,22.07
2018-03-28T14:08:51.944Z,20.50
2018-03-28T14:11:19.376Z,21.03
2018-03-28T14:13:46.796Z,22.67
2018-03-28T14:16:14.188Z,22.30
2018-03-28T14:18:41.616Z,22.63
2018-03-28T14:21:09.019Z,21.83
2018-03-28T14:23:37.316Z,21.40
2018-03-28T14:26:04.712Z,21.20
2018-03-28T14:28:32.127Z,22.60
2018-03-28T14:30:59.504Z,22.83
2018-03-28T14:33:27.000Z,23.43
2018-03-28T14:35:54.424Z,23.33
2018-03-28T14:38:21.830Z,24.67
2018-03-28T14:40:49.260Z,23.40
2018-03-28T14:43:16.642Z,25.40
2018-03-28T14:45:44.035Z,23.57
2018-03-28T14:48:18.799Z,23.87
2018-03-28T14:50:46.187Z,23.43
2018-03-28T14:53:13.584Z,23.63
2018-03-28T14:55:41.060Z,23.90
2018-03-28T14:58:08.451Z,24.37
2018-03-28T15:00:35.985Z,23.93
2018-03-28T15:03:03.464Z,24.20
2018-03-28T15:05:30.849Z,24.23
2018-03-28T15:07:58.281Z,24.83
2018-03-28T15:10:25.707Z,25.73
2018-03-28T15:12:53.088Z,24.53
2018-03-28T15:15:20.506Z,25.20
2018-03-28T15:17:47.882Z,27.30
2018-03-28T15:20:15.313Z,25.73
2018-03-28T15:22:42.729Z,25.87
2018-03-28T15:25:10.144Z,25.77
2018-03-28T15:27:37.536Z,25.50
2018-03-28T15:30:04.934Z,24.77
2018-03-28T15:32:32.343Z,25.33
2018-03-28T15:34:59.715Z,25.43
2018-03-28T15:37:31.328Z,24.17
2018-03-28T15:39:58.757Z,24.33
2018-03-28T15:42:26.135Z,24.80
2018-03-28T15:44:53.572Z,23.80
2018-03-28T15:47:20.960Z,23.33
2018-03-28T15:49:48.345Z,21.27
2018-03-28T15:52:15.762Z,21.97
2018-03-28T15:54:43.145Z,21.47
2018-03-28T15:57:10.521Z,21.47
2018-03-28T15:59:38.048Z,20.90
2018-03-28T16:02:05.509Z,21.30
2018-03-28T16:04:32.928Z,22.70
2018-03-28T16:07:00.345Z,21.63
2018-03-28T16:09:27.736Z,22.07
2018-03-28T16:11:55.155Z,21.60
2018-03-28T16:14:22.572Z,20.40
2018-03-28T16:16:50.008Z,22.40
2018-03-28T16:19:17.409Z,23.40
2018-03-28T16:21:44.797Z,21.80
2018-03-28T16:24:12.196Z,22.97
2018-03-28T16:26:39.601Z,24.80
2018-03-28T16:29:07.005Z,24.17
2018-03-28T16:31:34.419Z,23.30
2018-03-28T16:34:01.802Z,25.57
2018-03-28T16:36:29.188Z,23.87
2018-03-28T16:38:56.618Z,23.67
2018-03-28T16:41:23.992Z,22.27
2018-03-28T16:43:51.410Z,24.57
2018-03-28T16:46:18.813Z,23.30
2018-03-28T16:48:46.954Z,22.20
2018-03-28T16:51:14.383Z,24.07
2018-03-28T16:53:42.896Z,24.17
2018-03-28T16:56:10.404Z,23.50
2018-03-28T16:58:37.796Z,24.03
2018-03-28T17:01:05.190Z,23.10
2018-03-28T17:03:32.589Z,22.87
2018-03-28T17:05:59.985Z,21.13
2018-03-28T17:08:28.153Z,21.70
2018-03-28T17:10:55.588Z,20.67
2018-03-28T17:13:23.525Z,21.03
2018-03-28T17:15:50.965Z,24.03
2018-03-28T17:18:18.342Z,21.00
2018-03-28T17:20:45.749Z,19.73
2018-03-28T17:23:13.143Z,21.47
2018-03-28T17:25:40.515Z,22.43
2018-03-28T17:28:07.935Z,20.73
2018-03-28T17:30:35.308Z,21.03
2018-03-28T17:33:02.731Z,20.10
2018-03-28T17:35:30.680Z,20.17
2018-03-28T17:37:58.256Z,20.03
2018-03-28T17:40:25.657Z,21.70
2018-03-28T17:42:53.091Z,20.97
2018-03-28T17:45:20.428Z,20.73
2018-03-28T17:47:47.827Z,20.27
2018-03-28T17:50:15.216Z,21.30
2018-03-28T17:52:42.613Z,20.47
2018-03-28T17:55:10.044Z,19.73
2018-03-28T17:57:37.436Z,20.83
2018-03-28T18:00:04.848Z,21.33
2018-03-28T18:02:32.268Z,18.93
2018-03-28T18:04:59.659Z,19.40
2018-03-28T18:07:27.032Z,17.60
2018-03-28T18:09:54.546Z,17.67
2018-03-28T18:12:21.922Z,17.80
2018-03-28T18:14:49.300Z,19.50
2018-03-28T18:17:16.705Z,17.37
2018-03-28T18:19:44.128Z,17.80
2018-03-28T18:22:11.503Z,18.77
2018-03-28T18:24:38.896Z,19.17
2018-03-28T18:27:06.294Z,18.23
2018-03-28T18:29:33.701Z,19.60
2018-03-28T18:32:01.077Z,19.80
2018-03-28T18:34:28.483Z,19.67
2018-03-28T18:36:55.886Z,20.07
2018-03-28T18:39:23.292Z,20.40
2018-03-28T18:41:50.684Z,19.63
2018-03-28T18:44:18.097Z,20.63
2018-03-28T18:46:45.485Z,19.83
2018-03-28T18:49:12.915Z,18.53
2018-03-28T18:51:40.339Z,20.00
2018-03-28T18:54:07.693Z,21.07
2018-03-28T18:56:35.076Z,20.33
2018-03-28T18:59:02.490Z,20.07
2018-03-28T19:01:29.873Z,21.90
2018-03-28T19:03:57.257Z,22.70
2018-03-28T19:06:24.638Z,20.87
2018-03-28T19:08:52.027Z,20.70
2018-03-28T19:11:20.924Z,20.40
2018-03-28T19:13:49.212Z,18.00
2018-03-28T19:16:17.444Z,17.13
2018-03-28T19:18:45.835Z,18.20
2018-03-28T19:21:13.319Z,17.90
2018-03-28T19:23:40.704Z,18.73
2018-03-28T19:26:08.079Z,18.93
2018-03-28T19:28:35.474Z,20.80
2018-03-28T19:31:03.876Z,21.07
2018-03-28T19:33:31.293Z,23.07
2018-03-28T19:35:58.668Z,24.40
2018-03-28T19:38:26.129Z,25.50
2018-03-28T19:40:53.580Z,24.87
2018-03-28T19:43:20.985Z,24.33
2018-03-28T19:45:48.397Z,24.67
2018-03-28T19:48:15.765Z,26.27
2018-03-28T19:50:43.145Z,25.70
2018-03-28T19:53:10.538Z,27.93
2018-03-28T19:55:37.925Z,27.13
2018-03-28T19:58:05.292Z,27.17
2018-03-28T20:00:32.749Z,27.90
2018-03-28T20:03:00.078Z,28.13
2018-03-28T20:05:27.449Z,27.07
2018-03-28T20:07:54.833Z,30.07
2018-03-28T20:10:22.217Z,32.43
2018-03-28T20:12:49.624Z,34.43
2018-03-28T20:15:17.032Z,35.47
2018-03-28T20:17:44.429Z,35.53
2018-03-28T20:20:11.816Z,35.43
2018-03-28T20:22:39.201Z,37.80
2018-03-28T20:25:06.613Z,36.57
2018-03-28T20:27:33.994Z,37.70
2018-03-28T20:30:01.381Z,35.70
2018-03-28T20:32:28.756Z,34.90
2018-03-28T20:34:56.156Z,31.60
2018-03-28T20:37:23.544Z,31.37
2018-03-28T20:39:50.945Z,33.57
2018-03-28T20:42:18.320Z,33.03
2018-03-28T20:44:45.738Z,35.27
2018-03-28T20:47:13.109Z,35.03
2018-03-28T20:49:40.527Z,36.97
2018-03-28T20:52:08.090Z,35.00
2018-03-28T20:54:35.492Z,36.50
2018-03-28T20:57:02.868Z,37.13
2018-03-28T20:59:30.264Z,35.73
2018-03-28T21:01:57.652Z,37.40
2018-03-28T21:04:25.040Z,37.00
2018-03-28T21:06:52.434Z,34.83
2018-03-28T21:09:19.810Z,38.80
2018-03-28T21:11:47.191Z,37.97
2018-03-28T21:14:14.594Z,38.47
2018-03-28T21:16:42.004Z,37.07
2018-03-28T21:19:09.376Z,38.73
2018-03-28T21:21:36.804Z,33.55
2018-03-28T21:24:04.192Z,33.43
2018-03-28T21:26:31.585Z,31.40
2018-03-28T21:28:58.971Z,26.70
2018-03-28T21:31:26.392Z,22.17
2018-03-28T21:33:53.775Z,20.83
2018-03-28T21:36:21.152Z,20.73
2018-03-28T21:38:48.555Z,21.57
2018-03-28T21:41:15.928Z,21.67
2018-03-28T21:43:43.362Z,23.97
2018-03-28T21:46:10.732Z,25.10
2018-03-28T21:48:38.158Z,24.73
2018-03-28T21:51:05.540Z,24.80
2018-03-28T21:53:33.197Z,25.50
2018-03-28T21:56:00.604Z,26.08
2018-03-28T21:58:27.996Z,27.10
2018-03-28T22:00:55.378Z,27.17
2018-03-28T22:03:22.768Z,23.83
2018-03-28T22:05:50.152Z,21.40
2018-03-28T22:08:17.534Z,20.90
2018-03-28T22:10:44.905Z,19.53
2018-03-28T22:13:12.320Z,21.80
2018-03-28T22:15:39.696Z,21.80
2018-03-28T22:18:07.080Z,20.57
2018-03-28T22:20:34.486Z,20.40
2018-03-28T22:23:01.845Z,20.33
2018-03-28T22:25:29.229Z,21.10
2018-03-28T22:27:56.620Z,20.00
2018-03-28T22:30:24.012Z,19.70
2018-03-28T22:32:51.404Z,22.90
2018-03-28T22:35:18.788Z,21.37
2018-03-28T22:37:46.183Z,20.90
2018-03-28T22:40:13.581Z,21.93
2018-03-28T22:42:40.980Z,21.30
2018-03-28T22:45:08.367Z,20.57
2018-03-28T22:47:35.760Z,21.80
2018-03-28T22:50:03.146Z,20.13
2018-03-28T22:52:30.536Z,21.63
2018-03-28T22:54:57.941Z,23.30
2018-03-28T22:57:25.345Z,25.67
2018-03-28T22:59:52.732Z,27.62
2018-03-28T23:02:20.124Z,27.30
2018-03-28T23:04:47.500Z,28.00
2018-03-28T23:07:14.953Z,28.42
2018-03-28T23:09:42.315Z,31.30
2018-03-28T23:12:09.966Z,30.40
2018-03-28T23:14:37.340Z,33.67
2018-03-28T23:17:04.729Z,34.17
2018-03-28T23:19:32.113Z,35.43
2018-03-28T23:21:59.521Z,35.70
2018-03-28T23:24:26.892Z,36.37
2018-03-28T23:26:54.297Z,34.60
2018-03-28T23:29:21.672Z,29.23
2018-03-28T23:31:49.096Z,27.50
2018-03-28T23:34:16.502Z,27.40
2018-03-28T23:36:43.925Z,25.90
2018-03-28T23:39:11.345Z,25.53
2018-03-28T23:41:38.714Z,24.70
2018-03-28T23:44:06.121Z,23.80
2018-03-28T23:46:33.500Z,24.43
2018-03-28T23:49:00.916Z,22.43
2018-03-28T23:51:28.381Z,22.23
2018-03-28T23:53:55.756Z,23.33
2018-03-28T23:56:23.148Z,22.17
2018-03-28T23:58:50.540Z,22.25
